sensor_id;sensor_type;location;lat;lon;timestamp;pressure;altitude;pressure_sealevel;temperature;humidity
25232;BME280;13176;51.140;6.290;2024-01-25T00:01:21;102031.47;;;11.76;84.71
25232;BME280;13176;51.140;6.290;2024-01-25T00:03:47;102069.91;;;12.16;83.44
25232;BME280;13176;51.140;6.290;2024-01-25T00:06:15;102111.78;;;12.16;84.60
25232;BME280;13176;51.140;6.290;2024-01-25T00:08:41;102007.03;;;11.68;84.04
25232;BME280;13176;51.140;6.290;2024-01-25T00:11:08;102101.28;;;11.98;85.21
25232;BME280;13176;51.140;6.290;2024-01-25T00:13:35;102098.69;;;12.07;85.14
25232;BME280;13176;51.140;6.290;2024-01-25T00:16:04;102075.97;;;11.92;85.20
25232;BME280;13176;51.140;6.290;2024-01-25T00:18:30;102052.41;;;11.85;84.87
25232;BME280;13176;51.140;6.290;2024-01-25T00:20:57;102094.34;;;12.12;84.30
25232;BME280;13176;51.140;6.290;2024-01-25T00:23:24;102027.94;;;11.62;84.89
25232;BME280;13176;51.140;6.290;2024-01-25T00:25:50;102117.06;;;12.31;84.08
25232;BME280;13176;51.140;6.290;2024-01-25T00:28:17;102089.00;;;11.79;86.47
25232;BME280;13176;51.140;6.290;2024-01-25T00:30:43;102106.47;;;11.83;87.06
25232;BME280;13176;51.140;6.290;2024-01-25T00:33:10;102076.84;;;11.91;85.82
25232;BME280;13176;51.140;6.290;2024-01-25T00:35:37;102097.78;;;11.96;85.44
25232;BME280;13176;51.140;6.290;2024-01-25T00:38:04;102106.56;;;12.16;85.46
25232;BME280;13176;51.140;6.290;2024-01-25T00:40:30;102087.22;;;11.72;86.52
25232;BME280;13176;51.140;6.290;2024-01-25T00:42:57;102115.22;;;12.03;86.64
25232;BME280;13176;51.140;6.290;2024-01-25T00:45:24;102089.94;;;11.96;86.21
25232;BME280;13176;51.140;6.290;2024-01-25T00:47:51;102094.31;;;12.09;85.35
25232;BME280;13176;51.140;6.290;2024-01-25T00:50:18;102076.00;;;12.00;85.30
25232;BME280;13176;51.140;6.290;2024-01-25T00:52:51;102115.28;;;12.15;85.86
25232;BME280;13176;51.140;6.290;2024-01-25T00:55:18;102075.97;;;11.91;85.08
25232;BME280;13176;51.140;6.290;2024-01-25T00:57:45;102111.78;;;12.16;85.63
25232;BME280;13176;51.140;6.290;2024-01-25T01:00:12;102086.44;;;11.88;86.31
25232;BME280;13176;51.140;6.290;2024-01-25T01:02:40;102103.09;;;12.20;85.44
25232;BME280;13176;51.140;6.290;2024-01-25T01:05:09;102096.09;;;12.08;85.04
25232;BME280;13176;51.140;6.290;2024-01-25T01:07:36;102083.84;;;12.00;84.50
25232;BME280;13176;51.140;6.290;2024-01-25T01:10:03;102045.19;;;11.27;86.73
25232;BME280;13176;51.140;6.290;2024-01-25T01:12:30;102092.50;;;11.81;86.58
25232;BME280;13176;51.140;6.290;2024-01-25T01:14:56;102101.06;;;11.50;89.04
25232;BME280;13176;51.140;6.290;2024-01-25T01:17:23;102120.34;;;11.73;88.58
25232;BME280;13176;51.140;6.290;2024-01-25T01:19:49;102075.63;;;11.24;89.21
25232;BME280;13176;51.140;6.290;2024-01-25T01:22:16;102088.88;;;11.52;88.58
25232;BME280;13176;51.140;6.290;2024-01-25T01:24:43;102106.44;;;11.80;87.15
25232;BME280;13176;51.140;6.290;2024-01-25T01:27:10;102118.63;;;11.75;87.67
25232;BME280;13176;51.140;6.290;2024-01-25T01:29:36;102071.25;;;11.15;89.69
25232;BME280;13176;51.140;6.290;2024-01-25T01:32:03;102053.81;;;11.19;89.87
25232;BME280;13176;51.140;6.290;2024-01-25T01:34:29;102080.09;;;11.41;89.60
25232;BME280;13176;51.140;6.290;2024-01-25T01:36:56;102069.69;;;11.50;88.00
25232;BME280;13176;51.140;6.290;2024-01-25T01:39:22;102057.41;;;11.28;88.66
25232;BME280;13176;51.140;6.290;2024-01-25T01:41:49;102083.59;;;11.43;88.09
25232;BME280;13176;51.140;6.290;2024-01-25T01:44:15;101947.31;;;10.62;88.49
25232;BME280;13176;51.140;6.290;2024-01-25T01:46:42;102126.41;;;11.57;88.65
25232;BME280;13176;51.140;6.290;2024-01-25T01:49:11;102110.63;;;11.49;88.17
25232;BME280;13176;51.140;6.290;2024-01-25T01:51:39;101966.56;;;10.79;86.92
25232;BME280;13176;51.140;6.290;2024-01-25T01:54:07;101963.91;;;10.75;86.88
25232;BME280;13176;51.140;6.290;2024-01-25T01:56:34;102113.22;;;11.48;87.06
25232;BME280;13176;51.140;6.290;2024-01-25T01:59:10;102074.63;;;11.02;89.41
25232;BME280;13176;51.140;6.290;2024-01-25T02:01:38;102149.78;;;11.42;89.17
25232;BME280;13176;51.140;6.290;2024-01-25T02:04:05;102153.25;;;11.41;89.48
25232;BME280;13176;51.140;6.290;2024-01-25T02:06:31;102158.34;;;11.20;90.84
25232;BME280;13176;51.140;6.290;2024-01-25T02:08:59;102140.88;;;11.13;90.61
25232;BME280;13176;51.140;6.290;2024-01-25T02:11:26;102166.28;;;11.35;90.25
25232;BME280;13176;51.140;6.290;2024-01-25T02:13:52;102168.13;;;11.49;89.40
25232;BME280;13176;51.140;6.290;2024-01-25T02:16:19;102084.09;;;10.87;90.10
25232;BME280;13176;51.140;6.290;2024-01-25T02:18:47;102132.22;;;11.19;90.37
25232;BME280;13176;51.140;6.290;2024-01-25T02:21:15;102088.50;;;10.89;89.69
25232;BME280;13176;51.140;6.290;2024-01-25T02:23:41;102086.69;;;10.82;89.74
25232;BME280;13176;51.140;6.290;2024-01-25T02:26:08;102075.31;;;10.76;90.26
25232;BME280;13176;51.140;6.290;2024-01-25T02:28:34;102117.19;;;10.88;90.55
25232;BME280;13176;51.140;6.290;2024-01-25T02:31:02;102164.38;;;11.09;91.26
25232;BME280;13176;51.140;6.290;2024-01-25T02:33:29;102152.97;;;11.02;90.90
25232;BME280;13176;51.140;6.290;2024-01-25T02:35:55;102139.88;;;10.95;91.30
25232;BME280;13176;51.140;6.290;2024-01-25T02:38:22;102180.88;;;11.06;92.14
25232;BME280;13176;51.140;6.290;2024-01-25T02:40:49;102185.34;;;11.21;91.32
25232;BME280;13176;51.140;6.290;2024-01-25T02:43:16;102167.94;;;11.21;90.17
25232;BME280;13176;51.140;6.290;2024-01-25T02:45:43;102137.13;;;10.78;91.29
25232;BME280;13176;51.140;6.290;2024-01-25T02:48:10;102137.22;;;10.93;90.91
25232;BME280;13176;51.140;6.290;2024-01-25T02:50:37;102145.00;;;10.86;90.99
25232;BME280;13176;51.140;6.290;2024-01-25T02:53:03;102096.09;;;10.65;90.36
25232;BME280;13176;51.140;6.290;2024-01-25T02:55:30;102142.31;;;10.75;91.44
25232;BME280;13176;51.140;6.290;2024-01-25T02:57:56;102176.44;;;10.96;91.19
25232;BME280;13176;51.140;6.290;2024-01-25T03:00:23;102159.81;;;10.85;90.67
25232;BME280;13176;51.140;6.290;2024-01-25T03:02:49;102210.63;;;11.23;90.43
25232;BME280;13176;51.140;6.290;2024-01-25T03:05:15;102156.19;;;10.68;92.04
25232;BME280;13176;51.140;6.290;2024-01-25T03:07:42;102044.31;;;10.11;91.20
25232;BME280;13176;51.140;6.290;2024-01-25T03:10:09;102211.34;;;11.03;90.81
25232;BME280;13176;51.140;6.290;2024-01-25T03:12:35;102197.28;;;10.92;91.32
25232;BME280;13176;51.140;6.290;2024-01-25T03:15:03;102188.50;;;10.84;90.76
25232;BME280;13176;51.140;6.290;2024-01-25T03:17:32;102202.34;;;10.71;92.76
25232;BME280;13176;51.140;6.290;2024-01-25T03:19:59;102176.97;;;10.59;92.07
25232;BME280;13176;51.140;6.290;2024-01-25T03:22:25;102164.41;;;10.25;93.54
25232;BME280;13176;51.140;6.290;2024-01-25T03:24:52;102173.09;;;10.24;94.11
25232;BME280;13176;51.140;6.290;2024-01-25T03:27:18;102165.03;;;10.05;95.86
25232;BME280;13176;51.140;6.290;2024-01-25T03:29:45;102155.56;;;10.09;94.69
25232;BME280;13176;51.140;6.290;2024-01-25T03:32:11;102172.34;;;10.33;93.33
25232;BME280;13176;51.140;6.290;2024-01-25T03:34:38;102175.84;;;10.38;92.52
25232;BME280;13176;51.140;6.290;2024-01-25T03:37:05;102178.47;;;10.36;92.99
25232;BME280;13176;51.140;6.290;2024-01-25T03:39:31;102174.94;;;10.31;93.23
25232;BME280;13176;51.140;6.290;2024-01-25T03:41:58;102103.13;;;9.91;93.77
25232;BME280;13176;51.140;6.290;2024-01-25T03:44:24;102183.81;;;10.48;93.86
25232;BME280;13176;51.140;6.290;2024-01-25T03:46:51;102184.75;;;10.56;93.43
25232;BME280;13176;51.140;6.290;2024-01-25T03:49:18;102161.09;;;10.38;93.06
25232;BME280;13176;51.140;6.290;2024-01-25T03:51:45;102162.81;;;10.36;93.13
25232;BME280;13176;51.140;6.290;2024-01-25T03:54:12;102177.53;;;10.31;93.42
25232;BME280;13176;51.140;6.290;2024-01-25T03:56:38;102177.59;;;10.37;94.06
25232;BME280;13176;51.140;6.290;2024-01-25T03:59:05;102114.53;;;9.99;93.82
25232;BME280;13176;51.140;6.290;2024-01-25T04:01:43;102101.38;;;9.90;94.36
25232;BME280;13176;51.140;6.290;2024-01-25T04:04:10;102203.75;;;10.42;94.26
25232;BME280;13176;51.140;6.290;2024-01-25T04:06:40;102204.47;;;10.30;94.43
25232;BME280;13176;51.140;6.290;2024-01-25T04:09:07;102157.19;;;10.01;95.12
25232;BME280;13176;51.140;6.290;2024-01-25T04:11:33;102197.59;;;10.35;94.45
25232;BME280;13176;51.140;6.290;2024-01-25T04:13:59;102191.41;;;10.26;95.09
25232;BME280;13176;51.140;6.290;2024-01-25T04:16:26;102159.09;;;10.14;94.63
25232;BME280;13176;51.140;6.290;2024-01-25T04:18:53;102174.84;;;10.25;94.07
25232;BME280;13176;51.140;6.290;2024-01-25T04:21:19;102164.28;;;10.11;94.44
25232;BME280;13176;51.140;6.290;2024-01-25T04:23:46;102169.38;;;10.02;95.51
25232;BME280;13176;51.140;6.290;2024-01-25T04:26:12;102128.31;;;9.87;94.50
25232;BME280;13176;51.140;6.290;2024-01-25T04:28:39;102201.00;;;10.31;94.00
25232;BME280;13176;51.140;6.290;2024-01-25T04:31:05;102182.66;;;10.22;93.41
25232;BME280;13176;51.140;6.290;2024-01-25T04:33:32;102199.09;;;10.16;94.04
25232;BME280;13176;51.140;6.290;2024-01-25T04:35:59;102157.09;;;9.96;93.63
25232;BME280;13176;51.140;6.290;2024-01-25T04:38:26;102010.97;;;9.11;93.65
25232;BME280;13176;51.140;6.290;2024-01-25T04:40:52;102160.69;;;10.03;93.18
25232;BME280;13176;51.140;6.290;2024-01-25T04:43:18;102182.91;;;9.77;94.96
25232;BME280;13176;51.140;6.290;2024-01-25T04:45:45;102164.06;;;9.99;93.30
25232;BME280;13176;51.140;6.290;2024-01-25T04:48:12;102202.25;;;9.94;93.80
25232;BME280;13176;51.140;6.290;2024-01-25T04:50:38;102178.88;;;9.98;94.09
25232;BME280;13176;51.140;6.290;2024-01-25T04:53:06;102170.03;;;9.89;92.69
25232;BME280;13176;51.140;6.290;2024-01-25T04:55:32;102150.78;;;9.79;92.87
25232;BME280;13176;51.140;6.290;2024-01-25T04:57:58;102167.38;;;9.83;92.89
25232;BME280;13176;51.140;6.290;2024-01-25T05:00:25;102201.56;;;10.05;92.59
25232;BME280;13176;51.140;6.290;2024-01-25T05:02:51;102177.75;;;9.80;93.67
25232;BME280;13176;51.140;6.290;2024-01-25T05:05:18;102177.66;;;9.74;93.11
25232;BME280;13176;51.140;6.290;2024-01-25T05:07:44;102130.03;;;9.23;93.35
25232;BME280;13176;51.140;6.290;2024-01-25T05:10:11;102155.78;;;9.61;92.64
25232;BME280;13176;51.140;6.290;2024-01-25T05:12:37;102198.66;;;9.83;92.58
25232;BME280;13176;51.140;6.290;2024-01-25T05:15:04;102142.53;;;9.48;92.53
25232;BME280;13176;51.140;6.290;2024-01-25T05:17:31;102229.16;;;9.91;92.56
25232;BME280;13176;51.140;6.290;2024-01-25T05:19:57;102221.31;;;9.90;92.11
25232;BME280;13176;51.140;6.290;2024-01-25T05:22:24;102211.56;;;9.74;93.05
25232;BME280;13176;51.140;6.290;2024-01-25T05:24:50;102224.66;;;9.80;92.32
25232;BME280;13176;51.140;6.290;2024-01-25T05:27:17;102185.97;;;9.49;92.98
25232;BME280;13176;51.140;6.290;2024-01-25T05:29:46;102206.97;;;9.58;92.42
25232;BME280;13176;51.140;6.290;2024-01-25T05:32:12;102187.72;;;9.50;92.25
25232;BME280;13176;51.140;6.290;2024-01-25T05:34:39;102192.94;;;9.50;92.36
25232;BME280;13176;51.140;6.290;2024-01-25T05:37:05;102205.16;;;9.54;91.76
25232;BME280;13176;51.140;6.290;2024-01-25T05:39:32;102105.25;;;8.91;91.58
25232;BME280;13176;51.140;6.290;2024-01-25T05:41:59;102210.31;;;9.51;92.07
25232;BME280;13176;51.140;6.290;2024-01-25T05:44:25;102195.44;;;9.41;92.33
25232;BME280;13176;51.140;6.290;2024-01-25T05:46:52;102035.28;;;8.54;92.26
25232;BME280;13176;51.140;6.290;2024-01-25T05:49:18;102169.91;;;9.19;92.24
25232;BME280;13176;51.140;6.290;2024-01-25T05:51:51;102191.13;;;9.43;92.19
25232;BME280;13176;51.140;6.290;2024-01-25T05:54:17;102049.19;;;8.56;91.74
25232;BME280;13176;51.140;6.290;2024-01-25T05:56:44;102203.19;;;9.38;91.31
25232;BME280;13176;51.140;6.290;2024-01-25T05:59:10;102178.50;;;9.15;92.09
25232;BME280;13176;51.140;6.290;2024-01-25T06:01:37;102148.69;;;8.95;92.08
25232;BME280;13176;51.140;6.290;2024-01-25T06:04:03;102206.66;;;9.37;91.13
25232;BME280;13176;51.140;6.290;2024-01-25T06:06:30;102220.44;;;9.31;91.06
25232;BME280;13176;51.140;6.290;2024-01-25T06:08:57;102206.50;;;9.28;91.63
25232;BME280;13176;51.140;6.290;2024-01-25T06:11:37;102083.91;;;8.58;92.88
25232;BME280;13176;51.140;6.290;2024-01-25T06:14:08;102203.00;;;9.26;93.09
25232;BME280;13176;51.140;6.290;2024-01-25T06:16:35;102247.59;;;9.44;92.45
25232;BME280;13176;51.140;6.290;2024-01-25T06:19:03;102232.66;;;9.34;91.95
25232;BME280;13176;51.140;6.290;2024-01-25T06:21:30;102227.38;;;9.31;92.38
25232;BME280;13176;51.140;6.290;2024-01-25T06:23:56;102220.16;;;9.15;93.53
25232;BME280;13176;51.140;6.290;2024-01-25T06:26:23;102180.72;;;8.90;92.29
25232;BME280;13176;51.140;6.290;2024-01-25T06:28:49;102168.41;;;8.81;92.62
25232;BME280;13176;51.140;6.290;2024-01-25T06:31:16;102238.34;;;9.10;93.34
25232;BME280;13176;51.140;6.290;2024-01-25T06:33:42;102223.56;;;9.11;93.12
25232;BME280;13176;51.140;6.290;2024-01-25T06:36:13;102219.94;;;9.00;95.45
25232;BME280;13176;51.140;6.290;2024-01-25T06:38:43;102226.94;;;9.04;95.64
25232;BME280;13176;51.140;6.290;2024-01-25T06:41:09;102232.34;;;9.16;95.53
25232;BME280;13176;51.140;6.290;2024-01-25T06:43:35;102216.66;;;9.13;95.26
25232;BME280;13176;51.140;6.290;2024-01-25T06:46:02;102235.09;;;9.25;94.23
25232;BME280;13176;51.140;6.290;2024-01-25T06:48:29;102183.44;;;8.97;94.28
25232;BME280;13176;51.140;6.290;2024-01-25T06:50:55;102253.44;;;9.31;94.97
25232;BME280;13176;51.140;6.290;2024-01-25T06:53:22;102239.41;;;9.23;95.04
25232;BME280;13176;51.140;6.290;2024-01-25T06:55:49;102174.59;;;8.88;94.76
25232;BME280;13176;51.140;6.290;2024-01-25T06:58:15;102134.06;;;8.51;94.89
25232;BME280;13176;51.140;6.290;2024-01-25T07:00:42;102187.69;;;8.91;95.03
25232;BME280;13176;51.140;6.290;2024-01-25T07:03:11;102252.44;;;9.23;94.94
25232;BME280;13176;51.140;6.290;2024-01-25T07:05:38;102233.47;;;8.81;96.06
25232;BME280;13176;51.140;6.290;2024-01-25T07:08:04;102289.09;;;9.35;95.00
25232;BME280;13176;51.140;6.290;2024-01-25T07:10:31;102276.03;;;9.32;94.11
25232;BME280;13176;51.140;6.290;2024-01-25T07:12:58;102268.06;;;9.23;93.97
25232;BME280;13176;51.140;6.290;2024-01-25T07:15:24;102129.53;;;8.40;93.43
25232;BME280;13176;51.140;6.290;2024-01-25T07:17:51;102223.63;;;9.14;93.14
25232;BME280;13176;51.140;6.290;2024-01-25T07:20:17;102291.88;;;9.47;93.02
25232;BME280;13176;51.140;6.290;2024-01-25T07:22:47;102268.16;;;9.30;93.80
25232;BME280;13176;51.140;6.290;2024-01-25T07:25:14;102121.59;;;8.32;94.53
25232;BME280;13176;51.140;6.290;2024-01-25T07:27:44;102244.31;;;9.05;94.89
25232;BME280;13176;51.140;6.290;2024-01-25T07:30:12;102266.97;;;9.12;95.21
25232;BME280;13176;51.140;6.290;2024-01-25T07:32:39;102275.19;;;9.33;94.19
25232;BME280;13176;51.140;6.290;2024-01-25T07:35:09;102140.84;;;8.43;94.23
25232;BME280;13176;51.140;6.290;2024-01-25T07:37:39;102232.00;;;8.95;95.13
25232;BME280;13176;51.140;6.290;2024-01-25T07:40:08;102247.91;;;9.13;94.35
25232;BME280;13176;51.140;6.290;2024-01-25T07:42:34;102228.75;;;9.08;93.97
25232;BME280;13176;51.140;6.290;2024-01-25T07:45:01;102149.88;;;8.63;93.86
25232;BME280;13176;51.140;6.290;2024-01-25T07:47:28;102030.97;;;8.07;93.25
25232;BME280;13176;51.140;6.290;2024-01-25T07:49:54;102128.78;;;8.48;94.18
25232;BME280;13176;51.140;6.290;2024-01-25T07:52:21;102271.50;;;9.22;94.44
25232;BME280;13176;51.140;6.290;2024-01-25T07:54:49;102235.16;;;8.78;96.24
25232;BME280;13176;51.140;6.290;2024-01-25T07:57:15;102229.44;;;8.98;95.82
25232;BME280;13176;51.140;6.290;2024-01-25T07:59:42;102272.31;;;9.18;95.82
25232;BME280;13176;51.140;6.290;2024-01-25T08:02:08;102271.78;;;9.38;95.21
25232;BME280;13176;51.140;6.290;2024-01-25T08:04:36;102267.41;;;9.36;95.30
25232;BME280;13176;51.140;6.290;2024-01-25T08:07:02;102291.50;;;9.23;97.50
25232;BME280;13176;51.140;6.290;2024-01-25T08:09:29;102274.00;;;9.16;97.93
25232;BME280;13176;51.140;6.290;2024-01-25T08:11:55;102283.84;;;9.32;97.10
25232;BME280;13176;51.140;6.290;2024-01-25T08:14:22;102311.03;;;9.49;97.15
25232;BME280;13176;51.140;6.290;2024-01-25T08:16:48;102293.03;;;9.64;96.50
25232;BME280;13176;51.140;6.290;2024-01-25T08:19:16;102247.75;;;9.54;95.46
25232;BME280;13176;51.140;6.290;2024-01-25T08:21:42;102257.47;;;9.66;95.22
25232;BME280;13176;51.140;6.290;2024-01-25T08:24:09;102251.09;;;9.49;95.64
25232;BME280;13176;51.140;6.290;2024-01-25T08:26:35;102288.59;;;9.57;96.89
25232;BME280;13176;51.140;6.290;2024-01-25T08:29:02;102257.38;;;9.60;96.07
25232;BME280;13176;51.140;6.290;2024-01-25T08:31:29;102280.16;;;9.73;96.51
25232;BME280;13176;51.140;6.290;2024-01-25T08:33:57;102277.00;;;9.93;95.00
25232;BME280;13176;51.140;6.290;2024-01-25T08:36:23;102262.03;;;9.80;95.91
25232;BME280;13176;51.140;6.290;2024-01-25T08:38:50;102291.78;;;9.96;96.99
25232;BME280;13176;51.140;6.290;2024-01-25T08:41:17;102182.28;;;9.33;95.83
25232;BME280;13176;51.140;6.290;2024-01-25T08:43:43;102213.16;;;9.64;95.66
25232;BME280;13176;51.140;6.290;2024-01-25T08:46:13;102226.38;;;9.78;95.75
25232;BME280;13176;51.140;6.290;2024-01-25T08:48:39;102281.53;;;10.06;95.54
25232;BME280;13176;51.140;6.290;2024-01-25T08:51:07;102280.88;;;10.20;94.85
25232;BME280;13176;51.140;6.290;2024-01-25T08:53:34;102297.41;;;10.21;95.57
25232;BME280;13176;51.140;6.290;2024-01-25T08:56:00;102254.69;;;10.12;95.01
25232;BME280;13176;51.140;6.290;2024-01-25T08:58:31;102255.50;;;10.08;96.00
25232;BME280;13176;51.140;6.290;2024-01-25T09:00:57;102276.41;;;10.11;95.38
25232;BME280;13176;51.140;6.290;2024-01-25T09:03:24;102296.50;;;10.18;95.73
25232;BME280;13176;51.140;6.290;2024-01-25T09:05:50;102292.91;;;10.10;96.80
25232;BME280;13176;51.140;6.290;2024-01-25T09:08:17;102262.66;;;10.23;95.37
25232;BME280;13176;51.140;6.290;2024-01-25T09:10:44;102243.66;;;10.32;94.65
25232;BME280;13176;51.140;6.290;2024-01-25T09:13:11;102212.38;;;10.36;93.74
25232;BME280;13176;51.140;6.290;2024-01-25T09:15:37;102248.25;;;10.52;93.81
25232;BME280;13176;51.140;6.290;2024-01-25T09:18:04;102272.63;;;10.54;94.23
25232;BME280;13176;51.140;6.290;2024-01-25T09:20:31;102220.72;;;10.07;94.62
25232;BME280;13176;51.140;6.290;2024-01-25T09:22:57;102284.09;;;10.67;93.78
25232;BME280;13176;51.140;6.290;2024-01-25T09:25:24;102262.06;;;10.45;93.93
25232;BME280;13176;51.140;6.290;2024-01-25T09:27:51;102275.91;;;10.38;95.65
25232;BME280;13176;51.140;6.290;2024-01-25T09:30:19;102308.28;;;10.54;95.57
25232;BME280;13176;51.140;6.290;2024-01-25T09:32:46;102281.31;;;10.53;94.70
25232;BME280;13176;51.140;6.290;2024-01-25T09:35:14;102240.88;;;10.21;96.25
25232;BME280;13176;51.140;6.290;2024-01-25T09:37:41;102274.19;;;10.40;95.72
25232;BME280;13176;51.140;6.290;2024-01-25T09:40:08;102292.09;;;10.15;97.88
25232;BME280;13176;51.140;6.290;2024-01-25T09:42:36;102245.16;;;10.14;96.62
25232;BME280;13176;51.140;6.290;2024-01-25T09:45:06;102269.88;;;10.44;95.88
25232;BME280;13176;51.140;6.290;2024-01-25T09:47:33;102163.09;;;9.89;96.00
25232;BME280;13176;51.140;6.290;2024-01-25T09:50:00;102295.28;;;10.58;95.67
25232;BME280;13176;51.140;6.290;2024-01-25T09:52:27;102271.19;;;10.11;98.17
25232;BME280;13176;51.140;6.290;2024-01-25T09:54:55;102278.94;;;10.74;95.43
25232;BME280;13176;51.140;6.290;2024-01-25T09:57:24;102274.59;;;10.76;95.41
25232;BME280;13176;51.140;6.290;2024-01-25T09:59:54;102231.00;;;10.69;94.67
25232;BME280;13176;51.140;6.290;2024-01-25T10:02:21;102297.66;;;11.16;94.16
25232;BME280;13176;51.140;6.290;2024-01-25T10:04:51;102253.19;;;11.10;92.64
25232;BME280;13176;51.140;6.290;2024-01-25T10:07:38;102301.00;;;11.03;93.60
25232;BME280;13176;51.140;6.290;2024-01-25T10:10:06;102267.53;;;10.66;94.69
25232;BME280;13176;51.140;6.290;2024-01-25T10:12:33;102299.25;;;11.02;94.54
25232;BME280;13176;51.140;6.290;2024-01-25T10:15:00;102296.53;;;10.92;93.50
25232;BME280;13176;51.140;6.290;2024-01-25T10:17:28;102320.56;;;11.44;92.42
25232;BME280;13176;51.140;6.290;2024-01-25T10:20:15;102332.75;;;11.42;93.57
25232;BME280;13176;51.140;6.290;2024-01-25T10:22:43;102318.91;;;11.53;92.12
25232;BME280;13176;51.140;6.290;2024-01-25T10:25:13;102223.44;;;10.95;92.53
25232;BME280;13176;51.140;6.290;2024-01-25T10:27:43;102294.03;;;11.02;93.11
25232;BME280;13176;51.140;6.290;2024-01-25T10:30:11;102293.25;;;11.12;92.74
25232;BME280;13176;51.140;6.290;2024-01-25T10:32:39;102326.28;;;11.07;92.45
25232;BME280;13176;51.140;6.290;2024-01-25T10:35:08;102268.00;;;11.11;91.41
25232;BME280;13176;51.140;6.290;2024-01-25T10:37:38;102311.75;;;11.33;92.15
25232;BME280;13176;51.140;6.290;2024-01-25T10:40:09;102310.13;;;11.45;91.48
25232;BME280;13176;51.140;6.290;2024-01-25T10:42:36;102260.44;;;10.55;94.21
25232;BME280;13176;51.140;6.290;2024-01-25T10:45:04;102215.38;;;10.72;93.58
25232;BME280;13176;51.140;6.290;2024-01-25T10:47:31;102266.25;;;11.09;92.57
25232;BME280;13176;51.140;6.290;2024-01-25T10:50:02;102246.09;;;10.96;92.38
25232;BME280;13176;51.140;6.290;2024-01-25T10:52:32;102244.94;;;10.68;94.33
25232;BME280;13176;51.140;6.290;2024-01-25T10:54:59;102266.06;;;10.89;93.98
25232;BME280;13176;51.140;6.290;2024-01-25T10:57:26;102276.41;;;10.80;94.35
25232;BME280;13176;51.140;6.290;2024-01-25T11:00:01;102271.00;;;10.65;94.90
25232;BME280;13176;51.140;6.290;2024-01-25T11:02:30;102248.66;;;10.94;94.44
25232;BME280;13176;51.140;6.290;2024-01-25T11:04:56;102278.66;;;11.35;91.53
25232;BME280;13176;51.140;6.290;2024-01-25T11:07:23;102238.25;;;10.96;92.06
25232;BME280;13176;51.140;6.290;2024-01-25T11:09:53;102224.63;;;11.28;91.43
25232;BME280;13176;51.140;6.290;2024-01-25T11:12:20;102226.66;;;11.68;90.53
25232;BME280;13176;51.140;6.290;2024-01-25T11:14:54;102187.13;;;11.23;88.70
25232;BME280;13176;51.140;6.290;2024-01-25T11:17:22;102178.72;;;11.67;87.43
25232;BME280;13176;51.140;6.290;2024-01-25T11:19:49;102247.78;;;11.98;86.78
25232;BME280;13176;51.140;6.290;2024-01-25T11:22:17;102216.41;;;12.01;86.62
25232;BME280;13176;51.140;6.290;2024-01-25T11:24:44;102210.41;;;12.30;86.33
25232;BME280;13176;51.140;6.290;2024-01-25T11:27:12;102192.13;;;12.47;84.72
25232;BME280;13176;51.140;6.290;2024-01-25T11:29:38;102179.59;;;11.68;85.71
25232;BME280;13176;51.140;6.290;2024-01-25T11:32:09;102185.72;;;11.68;86.12
25232;BME280;13176;51.140;6.290;2024-01-25T11:34:36;102209.56;;;12.39;84.72
25232;BME280;13176;51.140;6.290;2024-01-25T11:37:03;102179.97;;;12.60;82.84
25232;BME280;13176;51.140;6.290;2024-01-25T11:39:31;102186.91;;;12.38;83.20
25232;BME280;13176;51.140;6.290;2024-01-25T11:41:58;102118.84;;;12.35;81.33
25232;BME280;13176;51.140;6.290;2024-01-25T11:44:25;102165.13;;;12.76;81.85
25232;BME280;13176;51.140;6.290;2024-01-25T11:46:54;102199.97;;;12.35;83.43
25232;BME280;13176;51.140;6.290;2024-01-25T11:49:23;102165.16;;;12.82;81.64
25232;BME280;13176;51.140;6.290;2024-01-25T11:51:50;102124.13;;;13.00;80.40
25232;BME280;13176;51.140;6.290;2024-01-25T11:54:17;102186.13;;;13.28;79.51
25232;BME280;13176;51.140;6.290;2024-01-25T11:56:44;102177.38;;;13.46;78.60
25232;BME280;13176;51.140;6.290;2024-01-25T11:59:11;102180.03;;;13.05;79.93
25232;BME280;13176;51.140;6.290;2024-01-25T12:01:39;102094.41;;;12.83;79.53
25232;BME280;13176;51.140;6.290;2024-01-25T12:04:07;102159.03;;;13.41;78.52
25232;BME280;13176;51.140;6.290;2024-01-25T12:06:34;102136.31;;;13.40;79.02
25232;BME280;13176;51.140;6.290;2024-01-25T12:09:11;102138.97;;;12.97;79.55
25232;BME280;13176;51.140;6.290;2024-01-25T12:11:40;102187.81;;;12.63;82.17
25232;BME280;13176;51.140;6.290;2024-01-25T12:14:10;102169.53;;;13.29;79.36
25232;BME280;13176;51.140;6.290;2024-01-25T12:16:37;102092.66;;;12.87;78.62
25232;BME280;13176;51.140;6.290;2024-01-25T12:19:05;102177.41;;;13.28;78.86
25232;BME280;13176;51.140;6.290;2024-01-25T12:21:33;102155.53;;;13.33;78.50
25232;BME280;13176;51.140;6.290;2024-01-25T12:24:00;102159.91;;;13.19;78.99
25232;BME280;13176;51.140;6.290;2024-01-25T12:26:26;102166.88;;;12.75;80.27
25232;BME280;13176;51.140;6.290;2024-01-25T12:28:53;102141.41;;;12.09;82.17
25232;BME280;13176;51.140;6.290;2024-01-25T12:31:19;102110.13;;;12.77;79.78
25232;BME280;13176;51.140;6.290;2024-01-25T12:33:46;102094.44;;;12.95;78.89
25232;BME280;13176;51.140;6.290;2024-01-25T12:36:12;102130.19;;;13.31;77.85
25232;BME280;13176;51.140;6.290;2024-01-25T12:38:39;102141.56;;;13.16;78.50
25232;BME280;13176;51.140;6.290;2024-01-25T12:41:06;102148.59;;;12.90;79.72
25232;BME280;13176;51.140;6.290;2024-01-25T12:43:33;102137.19;;;13.45;77.71
25232;BME280;13176;51.140;6.290;2024-01-25T12:46:00;102134.56;;;13.27;76.74
25232;BME280;13176;51.140;6.290;2024-01-25T12:48:43;102127.56;;;13.35;77.24
25232;BME280;13176;51.140;6.290;2024-01-25T12:51:13;102093.56;;;13.02;77.07
25232;BME280;13176;51.140;6.290;2024-01-25T12:53:40;102152.03;;;13.46;77.31